createdAt,value
2022-11-14T00:02:43.243Z,11.43
2022-11-14T00:07:45.751Z,10.32
2022-11-14T00:12:47.327Z,12.35
2022-11-14T00:17:48.689Z,8.82
2022-11-14T00:22:50.065Z,12.65
2022-11-14T00:27:51.434Z,11.73
2022-11-14T00:32:52.854Z,12.20
2022-11-14T00:37:54.179Z,11.48
2022-11-14T00:42:55.563Z,10.95
2022-11-14T00:47:56.892Z,10.88
2022-11-14T00:52:58.221Z,10.93
2022-11-14T00:57:59.554Z,10.35
2022-11-14T01:03:01.185Z,9.98
2022-11-14T01:08:02.550Z,11.65
2022-11-14T01:13:03.926Z,10.38
2022-11-14T01:18:05.319Z,11.48
2022-11-14T01:23:08.081Z,10.00
2022-11-14T01:28:15.688Z,11.95
2022-11-14T01:38:18.317Z,10.02
2022-11-14T01:43:19.596Z,10.52
2022-11-14T01:48:26.293Z,10.65
2022-11-14T01:53:28.120Z,12.80
2022-11-14T01:58:31.512Z,8.30
2022-11-14T02:03:37.755Z,11.75
2022-11-14T02:08:39.983Z,35.35
2022-11-14T02:13:41.456Z,16.63
2022-11-14T02:18:42.855Z,13.80
2022-11-14T02:23:44.258Z,11.35
2022-11-14T02:28:45.892Z,8.43
2022-11-14T02:33:47.237Z,5.63
2022-11-14T02:38:48.579Z,10.60
2022-11-14T02:43:49.941Z,7.32
2022-11-14T02:48:51.332Z,9.70
2022-11-14T02:53:52.806Z,7.85
2022-11-14T02:58:54.197Z,6.25
2022-11-14T03:03:55.627Z,8.55
2022-11-14T03:08:57.006Z,7.20
2022-11-14T03:14:00.107Z,9.13
2022-11-14T03:19:02.465Z,8.10
2022-11-14T03:24:04.094Z,8.23
2022-11-14T03:29:05.586Z,7.80
2022-11-14T03:34:07.057Z,5.70
2022-11-14T03:39:09.145Z,4.30
2022-11-14T03:44:10.497Z,6.85
2022-11-14T03:49:11.903Z,6.85
2022-11-14T03:54:13.401Z,5.25
2022-11-14T03:59:14.829Z,7.60
2022-11-14T04:04:16.266Z,5.28
2022-11-14T04:09:17.750Z,7.25
2022-11-14T04:14:19.131Z,4.93
2022-11-14T04:19:20.532Z,5.57
2022-11-14T04:24:21.942Z,12.43
2022-11-14T04:29:23.378Z,9.88
2022-11-14T04:34:24.784Z,14.27
2022-11-14T04:39:26.146Z,18.77
2022-11-14T04:44:27.505Z,17.27
2022-11-14T04:49:28.867Z,14.27
2022-11-14T04:54:30.731Z,14.32
2022-11-14T04:59:32.078Z,13.38
2022-11-14T05:04:33.412Z,11.60
2022-11-14T05:09:36.646Z,13.60
2022-11-14T05:14:37.995Z,10.13
2022-11-14T05:19:39.354Z,9.27
2022-11-14T05:24:40.723Z,7.47
2022-11-14T05:29:42.137Z,9.77
2022-11-14T05:34:43.603Z,10.55
2022-11-14T05:39:44.992Z,8.40
2022-11-14T05:44:46.383Z,9.10
2022-11-14T05:49:47.743Z,9.45
2022-11-14T05:54:49.093Z,10.70
2022-11-14T05:59:50.555Z,10.70
2022-11-14T06:04:51.935Z,9.82
2022-11-14T06:09:53.281Z,12.48
2022-11-14T06:14:54.673Z,12.68
2022-11-14T06:19:56.034Z,13.80
2022-11-14T06:24:57.385Z,13.05
2022-11-14T06:29:58.745Z,15.20
2022-11-14T06:35:00.091Z,13.40
2022-11-14T06:40:01.544Z,12.57
2022-11-14T06:45:03.085Z,13.35
2022-11-14T06:50:05.855Z,23.92
2022-11-14T06:55:07.985Z,24.33
2022-11-14T07:00:09.806Z,29.08
2022-11-14T07:05:11.173Z,36.53
2022-11-14T07:10:12.592Z,35.53
2022-11-14T07:15:14.031Z,37.97
2022-11-14T07:20:16.010Z,31.23
2022-11-14T07:25:17.392Z,29.80
2022-11-14T07:30:18.840Z,36.75
2022-11-14T07:35:20.209Z,34.78
2022-11-14T07:40:21.643Z,30.40
2022-11-14T07:45:23.101Z,28.80
2022-11-14T07:50:25.360Z,31.70
2022-11-14T07:55:26.860Z,32.92
2022-11-14T08:00:28.619Z,28.95
2022-11-14T08:05:30.036Z,31.27
2022-11-14T08:10:33.760Z,33.47
2022-11-14T08:15:35.524Z,27.38
2022-11-14T08:20:36.874Z,29.00
2022-11-14T08:25:38.374Z,28.67
2022-11-14T08:30:40.017Z,29.85
2022-11-14T08:35:41.462Z,32.55
2022-11-14T08:40:42.843Z,29.55
2022-11-14T08:45:44.200Z,30.02
2022-11-14T08:50:45.656Z,28.15
2022-11-14T08:55:48.389Z,34.08
2022-11-14T09:00:51.866Z,27.65
2022-11-14T09:05:53.507Z,27.70
2022-11-14T09:10:55.103Z,29.55
2022-11-14T09:15:56.518Z,27.17
2022-11-14T09:21:03.055Z,30.35
2022-11-14T09:26:06.139Z,28.60
2022-11-14T09:31:10.537Z,25.25
2022-11-14T09:36:15.709Z,25.52
2022-11-14T09:41:26.979Z,24.20
2022-11-14T09:46:41.480Z,25.88
2022-11-14T09:51:51.024Z,22.08
2022-11-14T09:56:52.470Z,19.52
2022-11-14T10:02:12.689Z,21.55
2022-11-14T10:07:43.930Z,18.60
2022-11-14T10:13:16.349Z,21.52
2022-11-14T10:18:52.153Z,16.40
2022-11-14T10:24:00.660Z,14.23
2022-11-14T10:29:17.941Z,15.15
2022-11-14T10:34:30.464Z,14.80
2022-11-14T10:39:47.030Z,15.85
2022-11-14T10:44:57.740Z,14.18
2022-11-14T10:50:12.682Z,13.45
2022-11-14T10:55:16.982Z,16.00
2022-11-14T11:00:20.572Z,15.18
2022-11-14T11:05:27.898Z,14.18
2022-11-14T11:10:49.302Z,17.38
2022-11-14T11:15:57.798Z,12.45
2022-11-14T11:21:14.363Z,14.75
2022-11-14T11:26:28.550Z,14.48
2022-11-14T11:31:50.211Z,11.57
2022-11-14T11:37:16.199Z,16.25
2022-11-14T11:42:58.724Z,15.80
2022-11-14T11:48:08.209Z,11.70
2022-11-14T11:53:34.716Z,16.55
2022-11-14T11:58:44.674Z,13.35
2022-11-14T12:03:53.269Z,12.77
2022-11-14T12:09:13.922Z,13.70
2022-11-14T12:14:34.207Z,10.43
2022-11-14T12:19:53.213Z,8.57
2022-11-14T12:25:16.530Z,6.70
2022-11-14T12:30:21.950Z,7.47
2022-11-14T12:35:32.871Z,7.72
2022-11-14T12:40:50.647Z,6.57
2022-11-14T12:45:51.936Z,6.22
2022-11-14T12:50:54.819Z,9.40
2022-11-14T12:56:19.963Z,6.53
2022-11-14T13:01:42.580Z,7.03
2022-11-14T13:06:44.134Z,5.68
2022-11-14T13:12:09.119Z,6.60
2022-11-14T13:17:35.146Z,4.95
2022-11-14T13:22:41.522Z,6.15
2022-11-14T13:28:06.389Z,6.45
2022-11-14T13:33:05.857Z,5.18
2022-11-14T13:38:07.372Z,7.00
2022-11-14T13:43:18.901Z,6.95
2022-11-14T13:48:32.811Z,8.95
2022-11-14T13:53:34.994Z,6.25
2022-11-14T13:58:46.467Z,5.35
2022-11-14T14:04:06.519Z,7.72
2022-11-14T14:09:49.406Z,3.67
2022-11-14T14:15:20.070Z,7.10
2022-11-14T14:21:02.723Z,4.47
2022-11-14T14:26:23.227Z,5.95
2022-11-14T14:31:24.873Z,5.03
2022-11-14T14:36:34.034Z,4.07
2022-11-14T14:41:35.583Z,6.22
2022-11-14T14:46:37.265Z,4.75
2022-11-14T14:51:42.939Z,4.68
2022-11-14T14:56:56.600Z,5.60
2022-11-14T15:01:58.327Z,6.07
2022-11-14T15:13:36.242Z,5.43
2022-11-14T15:18:38.854Z,5.13
2022-11-14T15:23:41.226Z,4.65
2022-11-14T15:28:43.545Z,7.43
2022-11-14T15:33:46.098Z,5.45
2022-11-14T15:39:05.548Z,4.07
2022-11-14T15:44:31.656Z,4.43
2022-11-14T15:49:33.280Z,4.57
2022-11-14T15:54:37.705Z,5.68
2022-11-14T15:59:39.339Z,4.97
2022-11-14T16:04:47.081Z,5.55
2022-11-14T16:09:49.474Z,9.23
2022-11-14T16:14:50.824Z,6.13
2022-11-14T16:19:52.179Z,4.93
2022-11-14T16:24:53.746Z,4.05
2022-11-14T16:29:55.153Z,3.97
2022-11-14T16:34:56.513Z,3.72
2022-11-14T16:39:57.908Z,4.80
2022-11-14T16:45:01.866Z,3.78
2022-11-14T16:50:04.596Z,3.80
2022-11-14T16:55:08.390Z,4.55
2022-11-14T17:00:12.976Z,5.70
2022-11-14T17:05:14.713Z,6.82
2022-11-14T17:10:16.123Z,6.63
2022-11-14T17:15:17.539Z,7.00
2022-11-14T17:20:19.003Z,7.70
2022-11-14T17:25:20.931Z,8.68
2022-11-14T17:30:22.347Z,10.25
2022-11-14T17:35:23.781Z,7.35
2022-11-14T17:40:25.129Z,11.40
2022-11-14T17:45:26.502Z,7.97
2022-11-14T17:50:29.912Z,9.05
2022-11-14T17:55:33.246Z,9.38
2022-11-14T18:00:34.998Z,7.43
2022-11-14T18:05:36.669Z,9.18
2022-11-14T18:10:38.291Z,6.35
2022-11-14T18:15:39.786Z,8.27
2022-11-14T18:20:41.376Z,6.10
2022-11-14T18:25:42.768Z,8.05
2022-11-14T18:30:55.413Z,6.38
2022-11-14T18:35:58.555Z,5.75
2022-11-14T18:41:01.462Z,11.07
2022-11-14T18:46:06.078Z,8.35
2022-11-14T18:51:11.942Z,9.13
2022-11-14T18:56:16.656Z,8.18
2022-11-14T19:01:23.935Z,8.32
2022-11-14T19:06:26.144Z,8.73
2022-11-14T19:11:46.318Z,11.80
2022-11-14T19:16:47.882Z,9.43
2022-11-14T19:21:52.648Z,10.15
2022-11-14T19:26:54.159Z,9.38
2022-11-14T19:31:55.552Z,10.15
2022-11-14T19:37:01.148Z,17.73
2022-11-14T19:42:02.832Z,10.80
2022-11-14T19:47:04.266Z,12.00
2022-11-14T19:52:06.168Z,13.10
2022-11-14T19:57:07.598Z,12.35
2022-11-14T20:02:13.289Z,14.10
2022-11-14T20:07:14.832Z,17.60
2022-11-14T20:12:16.223Z,13.32
2022-11-14T20:17:17.570Z,11.32
2022-11-14T20:22:19.486Z,15.75
2022-11-14T20:27:20.926Z,13.48
2022-11-14T20:32:22.373Z,13.65
2022-11-14T20:37:23.826Z,12.70
2022-11-14T20:42:26.314Z,12.52
2022-11-14T20:47:28.899Z,12.85
2022-11-14T20:52:30.838Z,12.20
2022-11-14T20:57:34.891Z,15.98
2022-11-14T21:02:36.256Z,12.88
2022-11-14T21:07:38.101Z,14.38
2022-11-14T21:12:39.436Z,11.32
2022-11-14T21:17:40.770Z,13.45
2022-11-14T21:22:42.117Z,14.07
2022-11-14T21:27:43.528Z,13.35
2022-11-14T21:32:44.908Z,13.52
2022-11-14T21:37:46.252Z,13.68
2022-11-14T21:42:47.632Z,11.68
2022-11-14T21:47:48.985Z,14.02
2022-11-14T21:52:50.357Z,14.38
2022-11-14T21:57:54.391Z,12.35
2022-11-14T22:03:18.681Z,14.60
2022-11-14T22:08:20.388Z,14.10
2022-11-14T22:13:21.781Z,20.50
2022-11-14T22:18:23.218Z,13.13
2022-11-14T22:23:24.572Z,15.13
2022-11-14T22:28:27.142Z,16.30
2022-11-14T22:33:36.749Z,14.77
2022-11-14T22:38:38.852Z,16.85
2022-11-14T22:43:40.530Z,17.15
2022-11-14T22:48:43.185Z,14.82
2022-11-14T22:53:53.095Z,11.48
2022-11-14T22:58:55.109Z,14.25
2022-11-14T23:03:59.510Z,18.30
2022-11-14T23:09:02.138Z,15.68
2022-11-14T23:14:03.494Z,21.13
2022-11-14T23:19:04.946Z,21.30
2022-11-14T23:24:10.448Z,17.67
2022-11-14T23:29:14.187Z,18.48
2022-11-14T23:34:15.502Z,19.10
2022-11-14T23:39:16.948Z,23.20
2022-11-14T23:44:18.281Z,14.98
2022-11-14T23:49:19.613Z,18.77
2022-11-14T23:54:21.008Z,19.17
2022-11-14T23:59:22.360Z,18.10
